首页
METAR-TAF:

METAR-TAF

机场 :

Beaufort, 南卡罗来纳州, 美国

纬度: 32-29-37N, 经度: 080-42-11W, 海拔: 11米

当前天气观测

该预报发布于50分钟前的10:56 UTC
风速9节,风向
温度 16°C
湿度 77%
气压 1026 hPa
能見度: 16.1公里
阴天层高于6000英尺

METAR: KNBC 191056Z 01009KT 10SM OVC060 16/12 A3029 RMK AO2 SLP258 FIRST T01610122 $

时间: 07:46 (11:46 UTC)

预报

预报有效从19日的 09点(UTC)到 20日的 09点(UTC)
风速10节,风向东北
能见度10公里或以上
阴天层高于4500英尺
成为
从 19日的 18点(UTC)到 19日的 20点(UTC)
风速5节,风向多变
能见度10公里或以上
阴天层高于4500英尺

TAF: KNBC 1909/2009 04010KT 9999 OVC045 QNH3020INS BECMG 1918/1920 VRB05KT 9999 OVC045 QNH3006INS T22/1918Z T18/2003Z

超过4000个机场的气象观测和天气预报(METAR&TAF报告)。

可查询的气象台以黄色和红色小点在地图上表示。

将鼠标移到小点上方,可查看气象台名称。

然后点击查看天气观测和预报。

如需切换地图:点击带黑十字的绿色按钮放大地图;点击带横线的绿色按钮缩小地图;或者点击绿色箭头查看邻近地区的地图。


METAR-TAF: